sensor_id;sensor_type;location;lat;lon;timestamp;temperature;humidity
46926;DHT22;32667;48.248;-1.700;2024-02-21T00:01:38;11.20;79.10
46926;DHT22;32667;48.248;-1.700;2024-02-21T00:04:07;11.20;79.20
46926;DHT22;32667;48.248;-1.700;2024-02-21T00:06:35;11.10;79.00
46926;DHT22;32667;48.248;-1.700;2024-02-21T00:09:00;11.10;79.10
46926;DHT22;32667;48.248;-1.700;2024-02-21T00:11:26;11.10;79.20
46926;DHT22;32667;48.248;-1.700;2024-02-21T00:13:54;11.10;79.20
46926;DHT22;32667;48.248;-1.700;2024-02-21T00:16:20;11.10;79.20
46926;DHT22;32667;48.248;-1.700;2024-02-21T00:18:49;11.10;79.20
46926;DHT22;32667;48.248;-1.700;2024-02-21T00:21:17;11.10;79.20
46926;DHT22;32667;48.248;-1.700;2024-02-21T00:23:46;11.10;79.10
46926;DHT22;32667;48.248;-1.700;2024-02-21T00:26:14;11.10;79.10
46926;DHT22;32667;48.248;-1.700;2024-02-21T00:28:40;11.20;79.10
46926;DHT22;32667;48.248;-1.700;2024-02-21T00:31:06;11.20;79.10
46926;DHT22;32667;48.248;-1.700;2024-02-21T00:33:32;11.20;79.10
46926;DHT22;32667;48.248;-1.700;2024-02-21T00:36:00;11.20;79.10
46926;DHT22;32667;48.248;-1.700;2024-02-21T00:38:25;11.20;79.10
46926;DHT22;32667;48.248;-1.700;2024-02-21T00:40:51;11.20;79.10
46926;DHT22;32667;48.248;-1.700;2024-02-21T00:43:17;11.10;79.10
46926;DHT22;32667;48.248;-1.700;2024-02-21T00:45:43;11.10;79.10
46926;DHT22;32667;48.248;-1.700;2024-02-21T00:48:08;11.10;79.10
46926;DHT22;32667;48.248;-1.700;2024-02-21T00:50:34;11.10;79.10
46926;DHT22;32667;48.248;-1.700;2024-02-21T00:53:00;11.10;79.10
46926;DHT22;32667;48.248;-1.700;2024-02-21T00:55:28;11.10;79.20
46926;DHT22;32667;48.248;-1.700;2024-02-21T00:57:54;11.10;79.20
46926;DHT22;32667;48.248;-1.700;2024-02-21T01:00:20;11.10;79.10
46926;DHT22;32667;48.248;-1.700;2024-02-21T01:02:45;11.10;79.20
46926;DHT22;32667;48.248;-1.700;2024-02-21T01:05:11;11.10;79.20
46926;DHT22;32667;48.248;-1.700;2024-02-21T01:07:37;11.20;79.10
46926;DHT22;32667;48.248;-1.700;2024-02-21T01:10:03;11.20;79.00
46926;DHT22;32667;48.248;-1.700;2024-02-21T01:12:29;11.20;79.00
46926;DHT22;32667;48.248;-1.700;2024-02-21T01:14:55;11.20;79.00
46926;DHT22;32667;48.248;-1.700;2024-02-21T01:17:20;11.20;79.10
46926;DHT22;32667;48.248;-1.700;2024-02-21T01:19:46;11.20;79.10
46926;DHT22;32667;48.248;-1.700;2024-02-21T01:22:15;11.20;79.10
46926;DHT22;32667;48.248;-1.700;2024-02-21T01:24:41;11.10;79.00
46926;DHT22;32667;48.248;-1.700;2024-02-21T01:27:07;11.10;79.10
46926;DHT22;32667;48.248;-1.700;2024-02-21T01:29:36;11.10;79.10
46926;DHT22;32667;48.248;-1.700;2024-02-21T01:32:01;11.10;79.00
46926;DHT22;32667;48.248;-1.700;2024-02-21T01:34:27;11.10;79.00
46926;DHT22;32667;48.248;-1.700;2024-02-21T01:36:53;11.10;79.00
46926;DHT22;32667;48.248;-1.700;2024-02-21T01:39:21;11.10;79.00
46926;DHT22;32667;48.248;-1.700;2024-02-21T01:41:47;11.10;79.10
46926;DHT22;32667;48.248;-1.700;2024-02-21T01:44:14;11.10;79.10
46926;DHT22;32667;48.248;-1.700;2024-02-21T01:46:39;11.10;79.10
46926;DHT22;32667;48.248;-1.700;2024-02-21T01:49:08;11.10;79.10
46926;DHT22;32667;48.248;-1.700;2024-02-21T01:51:36;11.10;79.10
46926;DHT22;32667;48.248;-1.700;2024-02-21T01:54:02;11.10;79.10
46926;DHT22;32667;48.248;-1.700;2024-02-21T01:56:28;11.10;79.00
46926;DHT22;32667;48.248;-1.700;2024-02-21T01:58:56;11.10;79.10
46926;DHT22;32667;48.248;-1.700;2024-02-21T02:01:22;11.10;79.00
46926;DHT22;32667;48.248;-1.700;2024-02-21T02:03:55;11.10;79.10
46926;DHT22;32667;48.248;-1.700;2024-02-21T02:06:24;11.10;79.10
46926;DHT22;32667;48.248;-1.700;2024-02-21T02:08:54;11.10;79.10
46926;DHT22;32667;48.248;-1.700;2024-02-21T02:11:23;11.10;79.10
46926;DHT22;32667;48.248;-1.700;2024-02-21T02:13:51;11.00;79.10
46926;DHT22;32667;48.248;-1.700;2024-02-21T02:16:16;11.10;79.10
46926;DHT22;32667;48.248;-1.700;2024-02-21T02:18:44;11.10;79.10
46926;DHT22;32667;48.248;-1.700;2024-02-21T02:21:29;11.10;79.10
46926;DHT22;32667;48.248;-1.700;2024-02-21T02:23:56;11.00;79.10
46926;DHT22;32667;48.248;-1.700;2024-02-21T02:26:22;11.10;79.10
46926;DHT22;32667;48.248;-1.700;2024-02-21T02:29:06;11.00;79.00
46926;DHT22;32667;48.248;-1.700;2024-02-21T02:31:31;11.00;79.10
46926;DHT22;32667;48.248;-1.700;2024-02-21T02:34:02;11.00;79.10
46926;DHT22;32667;48.248;-1.700;2024-02-21T02:36:27;11.00;79.10
46926;DHT22;32667;48.248;-1.700;2024-02-21T02:38:53;11.00;79.10
46926;DHT22;32667;48.248;-1.700;2024-02-21T02:41:23;11.00;79.10
46926;DHT22;32667;48.248;-1.700;2024-02-21T02:43:56;11.10;79.10
46926;DHT22;32667;48.248;-1.700;2024-02-21T02:46:22;11.10;79.10
46926;DHT22;32667;48.248;-1.700;2024-02-21T02:48:52;11.10;79.00
46926;DHT22;32667;48.248;-1.700;2024-02-21T02:51:18;11.10;79.00
46926;DHT22;32667;48.248;-1.700;2024-02-21T02:53:44;11.10;79.00
46926;DHT22;32667;48.248;-1.700;2024-02-21T02:56:17;11.10;79.00
46926;DHT22;32667;48.248;-1.700;2024-02-21T02:58:47;11.10;79.00
46926;DHT22;32667;48.248;-1.700;2024-02-21T03:01:13;11.10;79.00
46926;DHT22;32667;48.248;-1.700;2024-02-21T03:03:39;11.10;78.90
46926;DHT22;32667;48.248;-1.700;2024-02-21T03:06:05;11.10;78.90
46926;DHT22;32667;48.248;-1.700;2024-02-21T03:08:31;11.10;79.00
46926;DHT22;32667;48.248;-1.700;2024-02-21T03:11:00;11.10;79.00
46926;DHT22;32667;48.248;-1.700;2024-02-21T03:13:26;11.10;78.90
46926;DHT22;32667;48.248;-1.700;2024-02-21T03:15:55;11.10;79.00
46926;DHT22;32667;48.248;-1.700;2024-02-21T03:18:20;11.10;79.00
46926;DHT22;32667;48.248;-1.700;2024-02-21T03:20:46;11.00;79.00
46926;DHT22;32667;48.248;-1.700;2024-02-21T03:23:12;11.00;79.10
46926;DHT22;32667;48.248;-1.700;2024-02-21T03:25:37;11.00;79.20
46926;DHT22;32667;48.248;-1.700;2024-02-21T03:28:03;11.00;79.30
46926;DHT22;32667;48.248;-1.700;2024-02-21T03:30:29;11.00;79.20
46926;DHT22;32667;48.248;-1.700;2024-02-21T03:32:55;11.00;79.30
46926;DHT22;32667;48.248;-1.700;2024-02-21T03:35:20;11.00;79.30
46926;DHT22;32667;48.248;-1.700;2024-02-21T03:37:46;11.00;79.30
46926;DHT22;32667;48.248;-1.700;2024-02-21T03:40:12;11.00;79.30
46926;DHT22;32667;48.248;-1.700;2024-02-21T03:42:38;10.90;79.20
46926;DHT22;32667;48.248;-1.700;2024-02-21T03:45:04;10.90;79.20
46926;DHT22;32667;48.248;-1.700;2024-02-21T03:47:32;10.90;79.30
46926;DHT22;32667;48.248;-1.700;2024-02-21T03:50:00;10.90;79.30
46926;DHT22;32667;48.248;-1.700;2024-02-21T03:52:28;10.90;79.30
46926;DHT22;32667;48.248;-1.700;2024-02-21T03:54:56;10.90;79.30
46926;DHT22;32667;48.248;-1.700;2024-02-21T03:57:24;10.90;79.30
46926;DHT22;32667;48.248;-1.700;2024-02-21T03:59:51;11.00;79.30
46926;DHT22;32667;48.248;-1.700;2024-02-21T04:02:18;11.00;79.30
46926;DHT22;32667;48.248;-1.700;2024-02-21T04:04:44;11.00;79.30
46926;DHT22;32667;48.248;-1.700;2024-02-21T04:07:14;11.00;79.20
46926;DHT22;32667;48.248;-1.700;2024-02-21T04:09:40;11.00;79.30
46926;DHT22;32667;48.248;-1.700;2024-02-21T04:12:07;11.00;79.20
46926;DHT22;32667;48.248;-1.700;2024-02-21T04:14:35;11.00;79.20
46926;DHT22;32667;48.248;-1.700;2024-02-21T04:17:01;11.00;79.20
46926;DHT22;32667;48.248;-1.700;2024-02-21T04:19:27;10.90;79.30
46926;DHT22;32667;48.248;-1.700;2024-02-21T04:21:53;11.00;79.30
46926;DHT22;32667;48.248;-1.700;2024-02-21T04:24:18;11.00;79.30
46926;DHT22;32667;48.248;-1.700;2024-02-21T04:26:44;11.00;79.30
46926;DHT22;32667;48.248;-1.700;2024-02-21T04:29:10;11.00;79.30
46926;DHT22;32667;48.248;-1.700;2024-02-21T04:31:36;11.00;79.20
46926;DHT22;32667;48.248;-1.700;2024-02-21T04:34:01;11.00;79.30
46926;DHT22;32667;48.248;-1.700;2024-02-21T04:36:28;11.00;79.20
46926;DHT22;32667;48.248;-1.700;2024-02-21T04:39:12;11.00;79.20
46926;DHT22;32667;48.248;-1.700;2024-02-21T04:41:37;11.00;79.20
46926;DHT22;32667;48.248;-1.700;2024-02-21T04:44:03;11.00;79.20
46926;DHT22;32667;48.248;-1.700;2024-02-21T04:46:29;11.00;79.20
46926;DHT22;32667;48.248;-1.700;2024-02-21T04:48:55;11.00;79.20
46926;DHT22;32667;48.248;-1.700;2024-02-21T04:51:21;11.00;79.20
46926;DHT22;32667;48.248;-1.700;2024-02-21T04:53:50;11.00;79.20
46926;DHT22;32667;48.248;-1.700;2024-02-21T04:56:15;11.00;79.30
46926;DHT22;32667;48.248;-1.700;2024-02-21T04:58:41;11.00;79.30
46926;DHT22;32667;48.248;-1.700;2024-02-21T05:01:07;11.00;79.40
46926;DHT22;32667;48.248;-1.700;2024-02-21T05:03:35;11.00;79.40
46926;DHT22;32667;48.248;-1.700;2024-02-21T05:06:01;11.00;79.30
46926;DHT22;32667;48.248;-1.700;2024-02-21T05:08:27;11.00;80.00
46926;DHT22;32667;48.248;-1.700;2024-02-21T05:10:53;11.00;79.30
46926;DHT22;32667;48.248;-1.700;2024-02-21T05:13:19;11.00;79.20
46926;DHT22;32667;48.248;-1.700;2024-02-21T05:15:44;11.00;79.30
46926;DHT22;32667;48.248;-1.700;2024-02-21T05:18:10;11.00;79.30
46926;DHT22;32667;48.248;-1.700;2024-02-21T05:20:36;11.00;79.30
46926;DHT22;32667;48.248;-1.700;2024-02-21T05:23:04;11.00;79.30
46926;DHT22;32667;48.248;-1.700;2024-02-21T05:25:30;11.00;79.30
46926;DHT22;32667;48.248;-1.700;2024-02-21T05:27:55;11.00;79.30
46926;DHT22;32667;48.248;-1.700;2024-02-21T05:30:21;11.00;79.30
46926;DHT22;32667;48.248;-1.700;2024-02-21T05:32:47;11.00;79.30
46926;DHT22;32667;48.248;-1.700;2024-02-21T05:35:13;11.00;79.30
46926;DHT22;32667;48.248;-1.700;2024-02-21T05:37:47;11.00;79.30
46926;DHT22;32667;48.248;-1.700;2024-02-21T05:40:18;11.00;79.30
46926;DHT22;32667;48.248;-1.700;2024-02-21T05:42:43;11.00;79.30
46926;DHT22;32667;48.248;-1.700;2024-02-21T05:45:09;11.00;79.30
46926;DHT22;32667;48.248;-1.700;2024-02-21T05:47:35;10.90;79.30
46926;DHT22;32667;48.248;-1.700;2024-02-21T05:50:01;10.90;79.30
46926;DHT22;32667;48.248;-1.700;2024-02-21T05:52:27;10.90;79.30
46926;DHT22;32667;48.248;-1.700;2024-02-21T05:54:52;11.00;79.30
46926;DHT22;32667;48.248;-1.700;2024-02-21T05:57:18;10.90;79.30
46926;DHT22;32667;48.248;-1.700;2024-02-21T05:59:44;11.00;79.40
46926;DHT22;32667;48.248;-1.700;2024-02-21T06:02:10;10.90;79.30
46926;DHT22;32667;48.248;-1.700;2024-02-21T06:04:35;10.90;79.30
46926;DHT22;32667;48.248;-1.700;2024-02-21T06:07:01;10.90;79.30
46926;DHT22;32667;48.248;-1.700;2024-02-21T06:09:28;10.90;79.30
46926;DHT22;32667;48.248;-1.700;2024-02-21T06:11:53;10.90;79.30
46926;DHT22;32667;48.248;-1.700;2024-02-21T06:14:20;10.90;79.30
46926;DHT22;32667;48.248;-1.700;2024-02-21T06:16:45;11.00;79.40
46926;DHT22;32667;48.248;-1.700;2024-02-21T06:19:11;11.00;79.30
46926;DHT22;32667;48.248;-1.700;2024-02-21T06:21:37;11.00;79.30
46926;DHT22;32667;48.248;-1.700;2024-02-21T06:24:03;11.00;79.30
46926;DHT22;32667;48.248;-1.700;2024-02-21T06:26:29;11.00;79.30
46926;DHT22;32667;48.248;-1.700;2024-02-21T06:28:55;11.00;79.30
46926;DHT22;32667;48.248;-1.700;2024-02-21T06:31:25;11.00;79.30
46926;DHT22;32667;48.248;-1.700;2024-02-21T06:33:51;11.00;79.20
46926;DHT22;32667;48.248;-1.700;2024-02-21T06:36:17;11.00;79.30
46926;DHT22;32667;48.248;-1.700;2024-02-21T06:38:46;11.00;79.30
46926;DHT22;32667;48.248;-1.700;2024-02-21T06:41:17;11.00;79.20
46926;DHT22;32667;48.248;-1.700;2024-02-21T06:43:44;11.00;79.20
46926;DHT22;32667;48.248;-1.700;2024-02-21T06:46:11;11.00;79.10
46926;DHT22;32667;48.248;-1.700;2024-02-21T06:48:40;11.00;79.20
46926;DHT22;32667;48.248;-1.700;2024-02-21T06:51:06;11.00;79.20
46926;DHT22;32667;48.248;-1.700;2024-02-21T06:53:31;11.10;79.20
46926;DHT22;32667;48.248;-1.700;2024-02-21T06:55:57;11.10;79.20
46926;DHT22;32667;48.248;-1.700;2024-02-21T06:58:23;11.10;79.10
46926;DHT22;32667;48.248;-1.700;2024-02-21T07:00:49;11.10;79.10
46926;DHT22;32667;48.248;-1.700;2024-02-21T07:03:15;11.10;79.20
46926;DHT22;32667;48.248;-1.700;2024-02-21T07:05:40;11.10;79.10
46926;DHT22;32667;48.248;-1.700;2024-02-21T07:08:06;11.10;79.10
46926;DHT22;32667;48.248;-1.700;2024-02-21T07:10:32;11.10;79.10
46926;DHT22;32667;48.248;-1.700;2024-02-21T07:12:57;11.10;79.10
46926;DHT22;32667;48.248;-1.700;2024-02-21T07:15:23;11.10;79.10
46926;DHT22;32667;48.248;-1.700;2024-02-21T07:17:52;11.10;79.10
46926;DHT22;32667;48.248;-1.700;2024-02-21T07:20:20;11.10;79.10
46926;DHT22;32667;48.248;-1.700;2024-02-21T07:22:48;11.10;79.10
46926;DHT22;32667;48.248;-1.700;2024-02-21T07:25:16;11.10;79.10
46926;DHT22;32667;48.248;-1.700;2024-02-21T07:27:45;11.10;79.20
46926;DHT22;32667;48.248;-1.700;2024-02-21T07:30:13;11.10;79.10
46926;DHT22;32667;48.248;-1.700;2024-02-21T07:32:40;11.10;79.00
46926;DHT22;32667;48.248;-1.700;2024-02-21T07:35:06;11.20;79.10
46926;DHT22;32667;48.248;-1.700;2024-02-21T07:37:36;11.20;79.70
46926;DHT22;32667;48.248;-1.700;2024-02-21T07:40:06;11.20;79.00
46926;DHT22;32667;48.248;-1.700;2024-02-21T07:42:32;11.20;79.00
46926;DHT22;32667;48.248;-1.700;2024-02-21T07:45:00;11.20;79.00
46926;DHT22;32667;48.248;-1.700;2024-02-21T07:47:26;11.20;79.00
46926;DHT22;32667;48.248;-1.700;2024-02-21T07:49:52;11.20;79.00
46926;DHT22;32667;48.248;-1.700;2024-02-21T07:52:20;11.20;79.00
46926;DHT22;32667;48.248;-1.700;2024-02-21T07:54:46;11.20;79.00
46926;DHT22;32667;48.248;-1.700;2024-02-21T07:57:11;11.20;78.90
46926;DHT22;32667;48.248;-1.700;2024-02-21T07:59:39;11.30;78.90
46926;DHT22;32667;48.248;-1.700;2024-02-21T08:02:05;11.30;78.90
46926;DHT22;32667;48.248;-1.700;2024-02-21T08:04:35;11.30;78.90
46926;DHT22;32667;48.248;-1.700;2024-02-21T08:07:00;11.30;78.90
46926;DHT22;32667;48.248;-1.700;2024-02-21T08:09:31;11.30;78.90
46926;DHT22;32667;48.248;-1.700;2024-02-21T08:12:02;11.40;78.90
46926;DHT22;32667;48.248;-1.700;2024-02-21T08:14:28;11.40;78.90
46926;DHT22;32667;48.248;-1.700;2024-02-21T08:16:53;11.30;78.80
46926;DHT22;32667;48.248;-1.700;2024-02-21T08:19:21;11.40;78.90
46926;DHT22;32667;48.248;-1.700;2024-02-21T08:21:50;11.40;79.20
46926;DHT22;32667;48.248;-1.700;2024-02-21T08:24:16;11.40;78.80
46926;DHT22;32667;48.248;-1.700;2024-02-21T08:26:43;11.40;78.80
46926;DHT22;32667;48.248;-1.700;2024-02-21T08:29:10;11.40;78.90
46926;DHT22;32667;48.248;-1.700;2024-02-21T08:31:37;11.40;78.90
46926;DHT22;32667;48.248;-1.700;2024-02-21T08:34:04;11.40;78.90
46926;DHT22;32667;48.248;-1.700;2024-02-21T08:36:34;11.40;78.90
46926;DHT22;32667;48.248;-1.700;2024-02-21T08:39:01;11.40;78.90
46926;DHT22;32667;48.248;-1.700;2024-02-21T08:41:31;11.40;78.80
46926;DHT22;32667;48.248;-1.700;2024-02-21T08:44:01;11.40;78.80
46926;DHT22;32667;48.248;-1.700;2024-02-21T08:46:28;11.40;78.80
46926;DHT22;32667;48.248;-1.700;2024-02-21T08:48:54;11.40;78.80
46926;DHT22;32667;48.248;-1.700;2024-02-21T08:51:20;11.50;78.80
46926;DHT22;32667;48.248;-1.700;2024-02-21T08:53:49;11.50;78.80
46926;DHT22;32667;48.248;-1.700;2024-02-21T08:56:15;11.50;78.80
46926;DHT22;32667;48.248;-1.700;2024-02-21T08:58:43;11.50;78.80
46926;DHT22;32667;48.248;-1.700;2024-02-21T09:01:09;11.50;78.80
46926;DHT22;32667;48.248;-1.700;2024-02-21T09:03:44;11.50;78.70
46926;DHT22;32667;48.248;-1.700;2024-02-21T09:06:12;11.50;78.70
46926;DHT22;32667;48.248;-1.700;2024-02-21T09:08:39;11.60;78.70
46926;DHT22;32667;48.248;-1.700;2024-02-21T09:11:08;11.50;78.70
46926;DHT22;32667;48.248;-1.700;2024-02-21T09:13:34;11.60;78.70
46926;DHT22;32667;48.248;-1.700;2024-02-21T09:16:00;11.60;78.70
46926;DHT22;32667;48.248;-1.700;2024-02-21T09:18:28;11.60;78.70
46926;DHT22;32667;48.248;-1.700;2024-02-21T09:20:56;11.60;78.60
46926;DHT22;32667;48.248;-1.700;2024-02-21T09:23:24;11.60;78.60
46926;DHT22;32667;48.248;-1.700;2024-02-21T09:25:50;11.60;78.60
46926;DHT22;32667;48.248;-1.700;2024-02-21T09:28:16;11.60;78.60
46926;DHT22;32667;48.248;-1.700;2024-02-21T09:30:41;11.60;78.60
46926;DHT22;32667;48.248;-1.700;2024-02-21T09:33:07;11.70;78.60
46926;DHT22;32667;48.248;-1.700;2024-02-21T09:35:35;11.70;78.60
46926;DHT22;32667;48.248;-1.700;2024-02-21T09:38:03;11.70;78.50
46926;DHT22;32667;48.248;-1.700;2024-02-21T09:40:32;11.80;78.60
46926;DHT22;32667;48.248;-1.700;2024-02-21T09:43:04;11.80;78.50
46926;DHT22;32667;48.248;-1.700;2024-02-21T09:45:33;11.80;78.60
46926;DHT22;32667;48.248;-1.700;2024-02-21T09:50:47;11.80;78.50
46926;DHT22;32667;48.248;-1.700;2024-02-21T09:53:15;11.90;78.50
46926;DHT22;32667;48.248;-1.700;2024-02-21T09:55:44;11.90;78.40
46926;DHT22;32667;48.248;-1.700;2024-02-21T09:58:11;11.90;78.40
46926;DHT22;32667;48.248;-1.700;2024-02-21T10:00:40;11.90;78.40
46926;DHT22;32667;48.248;-1.700;2024-02-21T10:03:05;11.90;78.40
46926;DHT22;32667;48.248;-1.700;2024-02-21T10:05:47;11.90;78.40
46926;DHT22;32667;48.248;-1.700;2024-02-21T10:08:16;12.00;78.50
46926;DHT22;32667;48.248;-1.700;2024-02-21T10:10:44;12.00;78.50
46926;DHT22;32667;48.248;-1.700;2024-02-21T10:13:10;12.00;78.40
46926;DHT22;32667;48.248;-1.700;2024-02-21T10:15:39;12.00;78.40
46926;DHT22;32667;48.248;-1.700;2024-02-21T10:18:07;12.00;78.40
46926;DHT22;32667;48.248;-1.700;2024-02-21T10:20:38;12.00;78.40
46926;DHT22;32667;48.248;-1.700;2024-02-21T10:23:04;12.10;78.40
46926;DHT22;32667;48.248;-1.700;2024-02-21T10:25:36;12.10;78.40
46926;DHT22;32667;48.248;-1.700;2024-02-21T10:28:12;12.10;78.40
46926;DHT22;32667;48.248;-1.700;2024-02-21T10:30:38;12.10;78.30
46926;DHT22;32667;48.248;-1.700;2024-02-21T10:33:16;12.10;78.30
46926;DHT22;32667;48.248;-1.700;2024-02-21T10:35:46;12.10;78.30
46926;DHT22;32667;48.248;-1.700;2024-02-21T10:38:12;12.20;78.30
46926;DHT22;32667;48.248;-1.700;2024-02-21T10:40:40;12.20;78.30
46926;DHT22;32667;48.248;-1.700;2024-02-21T10:43:14;12.20;78.30
46926;DHT22;32667;48.248;-1.700;2024-02-21T10:45:46;12.20;78.30
46926;DHT22;32667;48.248;-1.700;2024-02-21T10:48:15;12.30;78.30
46926;DHT22;32667;48.248;-1.700;2024-02-21T10:50:53;12.30;78.20
46926;DHT22;32667;48.248;-1.700;2024-02-21T10:53:40;12.30;78.20
46926;DHT22;32667;48.248;-1.700;2024-02-21T10:56:32;12.30;78.20
46926;DHT22;32667;48.248;-1.700;2024-02-21T10:59:03;12.40;78.20
46926;DHT22;32667;48.248;-1.700;2024-02-21T11:01:32;12.40;78.20
46926;DHT22;32667;48.248;-1.700;2024-02-21T11:04:08;12.40;78.10
46926;DHT22;32667;48.248;-1.700;2024-02-21T11:06:38;12.40;78.20
46926;DHT22;32667;48.248;-1.700;2024-02-21T11:09:08;12.40;78.10
46926;DHT22;32667;48.248;-1.700;2024-02-21T11:11:46;12.40;78.20
46926;DHT22;32667;48.248;-1.700;2024-02-21T11:14:21;12.40;78.80
46926;DHT22;32667;48.248;-1.700;2024-02-21T11:16:47;12.40;78.20
46926;DHT22;32667;48.248;-1.700;2024-02-21T11:21:46;12.40;78.10
46926;DHT22;32667;48.248;-1.700;2024-02-21T11:24:13;12.40;78.20
46926;DHT22;32667;48.248;-1.700;2024-02-21T11:26:40;12.40;78.20
46926;DHT22;32667;48.248;-1.700;2024-02-21T11:29:09;12.40;78.20
46926;DHT22;32667;48.248;-1.700;2024-02-21T11:31:43;12.40;78.20
46926;DHT22;32667;48.248;-1.700;2024-02-21T11:34:11;12.40;78.20
46926;DHT22;32667;48.248;-1.700;2024-02-21T11:36:52;12.40;78.20
46926;DHT22;32667;48.248;-1.700;2024-02-21T11:39:23;12.40;78.30
46926;DHT22;32667;48.248;-1.700;2024-02-21T11:42:03;12.40;78.30
46926;DHT22;32667;48.248;-1.700;2024-02-21T11:44:30;12.40;78.30
46926;DHT22;32667;48.248;-1.700;2024-02-21T11:46:56;12.40;78.30
46926;DHT22;32667;48.248;-1.700;2024-02-21T11:49:25;12.40;78.30
46926;DHT22;32667;48.248;-1.700;2024-02-21T11:52:00;12.30;78.30
46926;DHT22;32667;48.248;-1.700;2024-02-21T11:54:27;12.30;78.40
46926;DHT22;32667;48.248;-1.700;2024-02-21T11:56:53;12.30;78.40
46926;DHT22;32667;48.248;-1.700;2024-02-21T11:59:19;12.30;78.50
46926;DHT22;32667;48.248;-1.700;2024-02-21T12:01:48;12.30;78.60
46926;DHT22;32667;48.248;-1.700;2024-02-21T12:04:14;12.30;78.60
46926;DHT22;32667;48.248;-1.700;2024-02-21T12:06:43;12.30;78.60
46926;DHT22;32667;48.248;-1.700;2024-02-21T12:09:10;12.20;78.60
46926;DHT22;32667;48.248;-1.700;2024-02-21T12:11:39;12.20;78.60
46926;DHT22;32667;48.248;-1.700;2024-02-21T12:14:07;12.20;78.70
46926;DHT22;32667;48.248;-1.700;2024-02-21T12:16:35;12.20;78.70
46926;DHT22;32667;48.248;-1.700;2024-02-21T12:19:07;12.20;78.60
46926;DHT22;32667;48.248;-1.700;2024-02-21T12:21:34;12.20;78.70
46926;DHT22;32667;48.248;-1.700;2024-02-21T12:24:23;12.10;78.60
46926;DHT22;32667;48.248;-1.700;2024-02-21T12:26:50;12.10;78.80
46926;DHT22;32667;48.248;-1.700;2024-02-21T12:29:22;12.10;78.80
46926;DHT22;32667;48.248;-1.700;2024-02-21T12:31:55;12.00;78.70
46926;DHT22;32667;48.248;-1.700;2024-02-21T12:34:24;12.00;78.80
46926;DHT22;32667;48.248;-1.700;2024-02-21T12:36:50;12.00;78.80
46926;DHT22;32667;48.248;-1.700;2024-02-21T12:39:17;12.00;78.90
46926;DHT22;32667;48.248;-1.700;2024-02-21T12:41:43;12.00;78.90
46926;DHT22;32667;48.248;-1.700;2024-02-21T12:44:10;12.00;79.00
46926;DHT22;32667;48.248;-1.700;2024-02-21T12:46:39;12.00;78.90
46926;DHT22;32667;48.248;-1.700;2024-02-21T12:49:07;11.90;78.90
46926;DHT22;32667;48.248;-1.700;2024-02-21T12:51:34;11.90;79.00
46926;DHT22;32667;48.248;-1.700;2024-02-21T12:54:02;11.90;79.00
46926;DHT22;32667;48.248;-1.700;2024-02-21T12:56:28;11.90;79.00
46926;DHT22;32667;48.248;-1.700;2024-02-21T13:02:20;11.90;79.10
46926;DHT22;32667;48.248;-1.700;2024-02-21T13:04:48;11.90;79.00
46926;DHT22;32667;48.248;-1.700;2024-02-21T13:07:14;11.90;79.20
46926;DHT22;32667;48.248;-1.700;2024-02-21T13:09:40;11.80;79.00
46926;DHT22;32667;48.248;-1.700;2024-02-21T13:12:06;11.80;79.00
46926;DHT22;32667;48.248;-1.700;2024-02-21T13:14:32;11.80;79.20
46926;DHT22;32667;48.248;-1.700;2024-02-21T13:17:00;11.70;79.10
46926;DHT22;32667;48.248;-1.700;2024-02-21T13:19:26;11.70;79.20
46926;DHT22;32667;48.248;-1.700;2024-02-21T13:21:52;11.70;79.20
46926;DHT22;32667;48.248;-1.700;2024-02-21T13:24:17;11.70;79.20
46926;DHT22;32667;48.248;-1.700;2024-02-21T13:26:43;11.70;79.20
46926;DHT22;32667;48.248;-1.700;2024-02-21T13:29:11;11.70;79.20
46926;DHT22;32667;48.248;-1.700;2024-02-21T13:31:37;11.80;79.20
46926;DHT22;32667;48.248;-1.700;2024-02-21T13:34:03;11.80;79.20
46926;DHT22;32667;48.248;-1.700;2024-02-21T13:36:31;11.70;79.00
46926;DHT22;32667;48.248;-1.700;2024-02-21T13:41:54;11.80;79.20
46926;DHT22;32667;48.248;-1.700;2024-02-21T13:44:20;11.80;79.00
46926;DHT22;32667;48.248;-1.700;2024-02-21T13:46:45;11.80;79.00
46926;DHT22;32667;48.248;-1.700;2024-02-21T13:49:11;11.80;79.00
46926;DHT22;32667;48.248;-1.700;2024-02-21T13:51:37;11.90;79.00
46926;DHT22;32667;48.248;-1.700;2024-02-21T13:54:10;11.90;78.90
46926;DHT22;32667;48.248;-1.700;2024-02-21T13:56:39;11.90;78.80
46926;DHT22;32667;48.248;-1.700;2024-02-21T13:59:05;11.90;78.80
46926;DHT22;32667;48.248;-1.700;2024-02-21T14:01:30;12.00;78.90
46926;DHT22;32667;48.248;-1.700;2024-02-21T14:03:57;12.00;78.80
46926;DHT22;32667;48.248;-1.700;2024-02-21T14:06:23;12.00;78.80
46926;DHT22;32667;48.248;-1.700;2024-02-21T14:08:49;12.00;78.70
46926;DHT22;32667;48.248;-1.700;2024-02-21T14:11:17;12.10;78.70
46926;DHT22;32667;48.248;-1.700;2024-02-21T14:13:43;12.10;78.70
46926;DHT22;32667;48.248;-1.700;2024-02-21T14:16:12;12.10;78.70
46926;DHT22;32667;48.248;-1.700;2024-02-21T14:18:40;12.10;78.60
46926;DHT22;32667;48.248;-1.700;2024-02-21T14:21:10;12.20;78.60
46926;DHT22;32667;48.248;-1.700;2024-02-21T14:23:43;12.20;78.60
46926;DHT22;32667;48.248;-1.700;2024-02-21T14:26:10;12.20;78.60
46926;DHT22;32667;48.248;-1.700;2024-02-21T14:28:35;12.20;78.60
46926;DHT22;32667;48.248;-1.700;2024-02-21T14:31:04;12.20;78.50
46926;DHT22;32667;48.248;-1.700;2024-02-21T14:33:31;12.30;78.60
46926;DHT22;32667;48.248;-1.700;2024-02-21T14:35:57;12.30;78.60
46926;DHT22;32667;48.248;-1.700;2024-02-21T14:38:23;12.30;78.50
46926;DHT22;32667;48.248;-1.700;2024-02-21T14:40:49;12.40;78.40
46926;DHT22;32667;48.248;-1.700;2024-02-21T14:43:22;12.40;78.40
46926;DHT22;32667;48.248;-1.700;2024-02-21T14:45:48;12.40;78.40
46926;DHT22;32667;48.248;-1.700;2024-02-21T14:48:14;12.40;78.40
46926;DHT22;32667;48.248;-1.700;2024-02-21T14:50:40;12.40;78.40
46926;DHT22;32667;48.248;-1.700;2024-02-21T14:53:06;12.50;78.40
46926;DHT22;32667;48.248;-1.700;2024-02-21T14:55:38;12.50;78.30
46926;DHT22;32667;48.248;-1.700;2024-02-21T14:58:07;12.50;78.30
46926;DHT22;32667;48.248;-1.700;2024-02-21T15:00:33;12.60;78.90
46926;DHT22;32667;48.248;-1.700;2024-02-21T15:02:59;12.60;78.20
46926;DHT22;32667;48.248;-1.700;2024-02-21T15:05:25;12.60;78.20
46926;DHT22;32667;48.248;-1.700;2024-02-21T15:07:52;12.70;78.20
46926;DHT22;32667;48.248;-1.700;2024-02-21T15:10:18;12.70;78.20
46926;DHT22;32667;48.248;-1.700;2024-02-21T15:12:46;12.70;78.10
46926;DHT22;32667;48.248;-1.700;2024-02-21T15:15:13;12.80;78.10
46926;DHT22;32667;48.248;-1.700;2024-02-21T15:17:39;12.80;78.10
46926;DHT22;32667;48.248;-1.700;2024-02-21T15:20:05;12.80;78.00
46926;DHT22;32667;48.248;-1.700;2024-02-21T15:22:36;12.90;78.00
46926;DHT22;32667;48.248;-1.700;2024-02-21T15:25:05;12.90;77.90
46926;DHT22;32667;48.248;-1.700;2024-02-21T15:27:31;13.00;78.00
46926;DHT22;32667;48.248;-1.700;2024-02-21T15:29:57;13.00;77.90